Capitol Logistics 937

Operating for DHL



LZIB
M. R. Štefánik Airport
Bratislava, SK
EDDK
Cologne Bonn Airport
Cologne, DE

Activity Log

Date Flight Route Aircraft Duration
02/05/2022 CPX937 TOVK1A TOVKA FRE LAMSI L604 SULUS L984 LOHRE T880 ESAMA GULKO GULK24 A30F 1h 32m

Route Details

Aircraft Information
Group: European Fleet
Types: A30F,A31F,B738
Route Data
Demand: L
Distance: 425nm
Duration: 1h 50m
Recm'd Route: TOVK1A TOVKA FRE LAMSI L604 SULUS L984 LOHRE T880 ESAMA GULKO GULK24
Origin Wx: LZIB 272130Z 32014KT CAVOK 16/07 Q1016 NOSIG
Dest. Wx: EDDK 272120Z AUTO 32008KT CAVOK 11/04 Q1023 NOSIG
Notes:

Financial History
Total Freight: 30,154lbs
Average Load: 30,154lbs/flt
Fuel Used: 14,724lbs
Avg. Fuel Used: 14,724lbs/flt
Fuel Expense: $11,544
Avg. Fuel Expense: $11,544
Avg. Fuel Cost: $0.78/lbs
Total Gross Income: $110,725
Pilot Pay: $259
Total Expenses: $15,839
Total Revenue: $83,001
Average Revenue: $110,725.48